MOL Explorer — 3EKT8 — position and weather

sailwx.info

Track history (hours):
 
Tides and Currents Weather Stations Pressure Air Temp Water Temp Dewpoint Dewpoint Depression Visibility Wind Speed Wind Dir Waves Ship Positions

MOL Explorer

Last reported at 2015-May-07 07:26 UTC. Time now 2015-May-07 07:35 UTC.
Position N 29°39' E 122°25'.

Length 293 m; draft 7.7 m.

Type: Ship (hazmat cat A). MMSI: 372827000.

Date/timePositionNaut miles runAvg speedWind from/ knotsBaromVisibWave heightAir tempDewpointWater temp
2015-May-07 07:26N 29°39' E 122°25'0 0.0
2015-May-07 02:20N 29°39' E 122°25'0 0.1
2015-May-07 00:32N 29°39' E 122°25'0 0.1
2015-May-06 22:08N 29°39' E 122°25'0 0.1
2015-May-06 21:20N 29°39' E 122°25'0 0.0
2015-May-06 20:14N 29°39' E 122°25'0 0.0
2015-May-06 19:32N 29°39' E 122°25'0 0.1
2015-May-06 18:32N 29°39' E 122°25'0 0.1
2015-May-06 16:14N 29°39' E 122°25'0 0.1
2015-May-06 15:14N 29°39' E 122°25'0 0.1
2015-May-06 10:20N 29°39' E 122°25'0 0.1
2015-May-06 07:14N 29°39' E 122°25'0 0.0
2015-May-06 01:08N 29°39' E 122°25'0 0.1
2015-May-05 23:20N 29°39' E 122°25'0 0.0
2015-May-05 11:14N 29°39' E 122°25'0 0.1
2015-May-05 09:26N 29°39' E 122°25'0 0.0
2015-May-04 23:26N 29°39' E 122°25'0 0.1
2015-May-04 20:32N 29°39' E 122°25'0 0.0
2015-May-04 18:32N 29°39' E 122°25'0 0.0
2015-May-04 11:14N 29°39' E 122°25'0 0.0
2015-May-04 05:20N 29°39' E 122°25'0 0.1
2015-May-04 01:26N 29°39' E 122°25'0 0.1
2015-May-03 22:26N 29°39' E 122°25'0 0.1
2015-May-03 20:32N 29°39' E 122°25'0 0.0
2015-May-03 19:26N 29°39' E 122°25'0 0.0
2015-May-03 18:08N 29°39' E 122°25'0 0.1
2015-May-03 15:26N 29°39' E 122°25'0 0.1
2015-May-03 11:26N 29°39' E 122°25'0 0.1
2015-May-03 09:26N 29°39' E 122°25'0 0.0
2015-May-03 08:08N 29°39' E 122°25'0 0.0
2015-May-03 05:20N 29°39' E 122°25'0 0.0
2015-May-03 02:14N 29°39' E 122°25'0 0.1
2015-May-03 00:14N 29°39' E 122°25'0 0.1
2015-May-02 22:14N 29°39' E 122°25'0 0.0
2015-May-02 20:26N 29°39' E 122°25'0 0.0
2015-May-02 19:26N 29°39' E 122°25'0 0.0
2015-May-02 16:20N 29°39' E 122°25'0 0.0
2015-May-02 07:26N 29°39' E 122°25'0 0.0
2015-May-01 22:08N 29°39' E 122°25'0 0.1
2015-May-01 19:26N 29°39' E 122°25'0 0.1
2015-May-01 17:08N 29°39' E 122°25'0 0.2
2015-May-01 16:32N 29°39' E 122°25'0 0.0
2015-May-01 12:32N 29°39' E 122°25'0 0.0
2015-May-01 11:20N 29°39' E 122°25'0 0.0
2015-May-01 09:14N 29°39' E 122°25'0 0.1
2015-May-01 08:32N 29°39' E 122°25'0 0.1
2015-May-01 07:20N 29°39' E 122°25'0 0.0
2015-Apr-30 22:32N 29°39' E 122°25'0 0.1
2015-Apr-30 20:26N 29°39' E 122°25'0 0.0
2015-Apr-30 13:26N 29°39' E 122°25'0 0.1
2015-Apr-30 12:26N 29°39' E 122°25'0 0.1
2015-Apr-30 11:08N 29°39' E 122°25'0 0.1
2015-Apr-30 10:32N 29°39' E 122°25'0 0.1
2015-Apr-30 06:20N 29°39' E 122°25'0 0.0
2015-Apr-30 01:32N 29°39' E 122°25'0 0.1
2015-Apr-29 22:20N 29°39' E 122°25'0 0.1
2015-Apr-29 21:32N 29°39' E 122°25'0 0.1
2015-Apr-29 20:32N 29°39' E 122°25'0 0.1
2015-Apr-29 19:32N 29°39' E 122°25'0 0.1
2015-Apr-29 18:20N 29°39' E 122°25'0 0.0
2015-Apr-29 17:14N 29°39' E 122°25'0 0.0
2015-Apr-29 14:26N 29°39' E 122°25'0 0.0
2015-Apr-29 13:20N 29°39' E 122°25'0 0.1
2015-Apr-29 10:33N 29°39' E 122°25'8 7.8
2015-Apr-29 09:33N 29°45' E 122°19'9 8.9
2015-Apr-29 08:33N 29°52' E 122°13'0 0.1
2015-Apr-29 07:33N 29°52' E 122°13'0 0.0
2015-Apr-29 06:33N 29°52' E 122°13'4 4.5
2015-Apr-29 05:33N 29°50' E 122°08'1 1.5
2015-Apr-29 04:34N 29°49' E 122°07'2 0.4
2015-Apr-28 23:06N 29°48' E 122°10'0 0.0
2015-Apr-28 21:12N 29°48' E 122°10'0 0.0
2015-Apr-28 00:18N 29°48' E 122°10'0 0.0
2015-Apr-27 23:24N 29°48' E 122°10'0 0.0
2015-Apr-27 22:24N 29°48' E 122°10'0 0.0
2015-Apr-27 18:30N 29°48' E 122°10'0 0.0
2015-Apr-27 17:30N 29°48' E 122°10'  
Track history (hours):
 
Tides and Currents Weather Stations Pressure Air Temp Water Temp Dewpoint Dewpoint Depression Visibility Wind Speed Wind Dir Waves Ship Positions

MOL Explorer

Last reported at 2015-May-07 07:26 UTC. Time now 2015-May-07 07:35 UTC.
Position N 29°39' E 122°25'.

Length 293 m; draft 7.7 m.

Type: Ship (hazmat cat A). MMSI: 372827000.

Date/timePositionNaut miles runAvg speedWind from/ knotsBaromVisibWave heightAir tempDewpointWater temp
2015-May-07 07:26N 29°39' E 122°25'0 0.0
2015-May-07 02:20N 29°39' E 122°25'0 0.1
2015-May-07 00:32N 29°39' E 122°25'0 0.1
2015-May-06 22:08N 29°39' E 122°25'0 0.1
2015-May-06 21:20N 29°39' E 122°25'0 0.0
2015-May-06 20:14N 29°39' E 122°25'0 0.0
2015-May-06 19:32N 29°39' E 122°25'0 0.1
2015-May-06 18:32N 29°39' E 122°25'0 0.1
2015-May-06 16:14N 29°39' E 122°25'0 0.1
2015-May-06 15:14N 29°39' E 122°25'0 0.1
2015-May-06 10:20N 29°39' E 122°25'0 0.1
2015-May-06 07:14N 29°39' E 122°25'0 0.0
2015-May-06 01:08N 29°39' E 122°25'0 0.1
2015-May-05 23:20N 29°39' E 122°25'0 0.0
2015-May-05 11:14N 29°39' E 122°25'0 0.1
2015-May-05 09:26N 29°39' E 122°25'0 0.0
2015-May-04 23:26N 29°39' E 122°25'0 0.1
2015-May-04 20:32N 29°39' E 122°25'0 0.0
2015-May-04 18:32N 29°39' E 122°25'0 0.0
2015-May-04 11:14N 29°39' E 122°25'0 0.0
2015-May-04 05:20N 29°39' E 122°25'0 0.1
2015-May-04 01:26N 29°39' E 122°25'0 0.1
2015-May-03 22:26N 29°39' E 122°25'0 0.1
2015-May-03 20:32N 29°39' E 122°25'0 0.0
2015-May-03 19:26N 29°39' E 122°25'0 0.0
2015-May-03 18:08N 29°39' E 122°25'0 0.1
2015-May-03 15:26N 29°39' E 122°25'0 0.1
2015-May-03 11:26N 29°39' E 122°25'0 0.1
2015-May-03 09:26N 29°39' E 122°25'0 0.0
2015-May-03 08:08N 29°39' E 122°25'0 0.0
2015-May-03 05:20N 29°39' E 122°25'0 0.0
2015-May-03 02:14N 29°39' E 122°25'0 0.1
2015-May-03 00:14N 29°39' E 122°25'0 0.1
2015-May-02 22:14N 29°39' E 122°25'0 0.0
2015-May-02 20:26N 29°39' E 122°25'0 0.0
2015-May-02 19:26N 29°39' E 122°25'0 0.0
2015-May-02 16:20N 29°39' E 122°25'0 0.0
2015-May-02 07:26N 29°39' E 122°25'0 0.0
2015-May-01 22:08N 29°39' E 122°25'0 0.1
2015-May-01 19:26N 29°39' E 122°25'0 0.1
2015-May-01 17:08N 29°39' E 122°25'0 0.2
2015-May-01 16:32N 29°39' E 122°25'0 0.0
2015-May-01 12:32N 29°39' E 122°25'0 0.0
2015-May-01 11:20N 29°39' E 122°25'0 0.0
2015-May-01 09:14N 29°39' E 122°25'0 0.1
2015-May-01 08:32N 29°39' E 122°25'0 0.1
2015-May-01 07:20N 29°39' E 122°25'0 0.0
2015-Apr-30 22:32N 29°39' E 122°25'0 0.1
2015-Apr-30 20:26N 29°39' E 122°25'0 0.0
2015-Apr-30 13:26N 29°39' E 122°25'0 0.1
2015-Apr-30 12:26N 29°39' E 122°25'0 0.1
2015-Apr-30 11:08N 29°39' E 122°25'0 0.1
2015-Apr-30 10:32N 29°39' E 122°25'0 0.1
2015-Apr-30 06:20N 29°39' E 122°25'0 0.0
2015-Apr-30 01:32N 29°39' E 122°25'0 0.1
2015-Apr-29 22:20N 29°39' E 122°25'0 0.1
2015-Apr-29 21:32N 29°39' E 122°25'0 0.1
2015-Apr-29 20:32N 29°39' E 122°25'0 0.1
2015-Apr-29 19:32N 29°39' E 122°25'0 0.1
2015-Apr-29 18:20N 29°39' E 122°25'0 0.0
2015-Apr-29 17:14N 29°39' E 122°25'0 0.0
2015-Apr-29 14:26N 29°39' E 122°25'0 0.0
2015-Apr-29 13:20N 29°39' E 122°25'0 0.1
2015-Apr-29 10:33N 29°39' E 122°25'8 7.8
2015-Apr-29 09:33N 29°45' E 122°19'9 8.9
2015-Apr-29 08:33N 29°52' E 122°13'0 0.1
2015-Apr-29 07:33N 29°52' E 122°13'0 0.0
2015-Apr-29 06:33N 29°52' E 122°13'4 4.5
2015-Apr-29 05:33N 29°50' E 122°08'1 1.5
2015-Apr-29 04:34N 29°49' E 122°07'2 0.4
2015-Apr-28 23:06N 29°48' E 122°10'0 0.0
2015-Apr-28 21:12N 29°48' E 122°10'0 0.0
2015-Apr-28 00:18N 29°48' E 122°10'0 0.0
2015-Apr-27 23:24N 29°48' E 122°10'0 0.0
2015-Apr-27 22:24N 29°48' E 122°10'0 0.0
2015-Apr-27 18:30N 29°48' E 122°10'0 0.0
2015-Apr-27 17:30N 29°48' E 122°10'  

Dump ship's entire track history